createdAt,value
2023-05-04T00:00:52.132Z,7.61
2023-05-04T00:02:31.874Z,7.58
2023-05-04T00:04:11.635Z,7.57
2023-05-04T00:05:51.413Z,7.53
2023-05-04T00:07:31.166Z,7.5
2023-05-04T00:09:10.931Z,7.47
2023-05-04T00:10:50.695Z,7.44
2023-05-04T00:12:30.454Z,7.4
2023-05-04T00:14:10.206Z,7.37
2023-05-04T00:15:49.985Z,7.35
2023-05-04T00:17:29.748Z,7.32
2023-05-04T00:19:09.505Z,7.29
2023-05-04T00:20:49.336Z,7.28
2023-05-04T00:22:29.047Z,7.22
2023-05-04T00:24:08.799Z,7.22
2023-05-04T00:25:48.572Z,7.2
2023-05-04T00:27:28.336Z,7.16
2023-05-04T00:29:08.083Z,7.12
2023-05-04T00:30:47.855Z,7.12
2023-05-04T00:32:27.605Z,7.08
2023-05-04T00:35:47.160Z,7.02
2023-05-04T00:37:26.906Z,6.96
2023-05-04T00:39:06.674Z,6.96
2023-05-04T00:40:46.448Z,6.94
2023-05-04T00:42:26.222Z,6.92
2023-05-04T00:45:45.736Z,6.85
2023-05-04T00:47:25.500Z,6.83
2023-05-04T00:49:05.253Z,6.8
2023-05-04T00:50:45.027Z,6.75
2023-05-04T00:52:24.847Z,6.74
2023-05-04T00:54:04.544Z,6.72
2023-05-04T00:55:44.303Z,6.7
2023-05-04T00:57:24.077Z,6.65
2023-05-04T00:59:03.857Z,6.62
2023-05-04T01:00:43.612Z,6.61
2023-05-04T01:02:23.369Z,6.59
2023-05-04T01:04:03.152Z,6.57
2023-05-04T01:05:42.896Z,6.55
2023-05-04T01:07:22.673Z,6.51
2023-05-04T01:09:02.428Z,6.49
2023-05-04T01:12:21.966Z,6.45
2023-05-04T01:14:01.715Z,6.4
2023-05-04T01:15:41.485Z,6.39
2023-05-04T01:17:21.246Z,6.37
2023-05-04T01:19:01.015Z,6.35
2023-05-04T01:20:40.768Z,6.31
2023-05-04T01:22:20.524Z,6.28
2023-05-04T01:24:00.369Z,6.27
2023-05-04T01:25:40.087Z,6.25
2023-05-04T01:27:19.833Z,6.21
2023-05-04T01:30:39.359Z,6.18
2023-05-04T01:32:19.121Z,6.15
2023-05-04T01:33:58.898Z,6.12
2023-05-04T01:35:38.651Z,6.08
2023-05-04T01:37:18.406Z,6.04
2023-05-04T01:38:58.170Z,6.03
2023-05-04T01:40:37.934Z,6.01
2023-05-04T01:42:17.691Z,5.98
2023-05-04T01:43:57.470Z,5.96
2023-05-04T01:45:37.224Z,5.94
2023-05-04T01:48:56.751Z,5.88
2023-05-04T01:50:36.528Z,5.86
2023-05-04T01:52:16.280Z,5.85
2023-05-04T01:55:35.802Z,5.8
2023-05-04T01:57:15.610Z,5.76
2023-05-04T01:58:55.348Z,5.74
2023-05-04T02:00:35.113Z,5.71
2023-05-04T02:02:14.865Z,5.66
2023-05-04T02:03:54.616Z,5.65
2023-05-04T02:05:34.444Z,5.62
2023-05-04T02:07:14.141Z,5.6
2023-05-04T02:08:53.902Z,5.58
2023-05-04T02:10:33.678Z,5.51
2023-05-04T02:12:13.441Z,5.5
2023-05-04T02:15:32.981Z,5.43
2023-05-04T02:17:12.727Z,5.41
2023-05-04T02:18:52.501Z,5.35
2023-05-04T02:20:32.265Z,5.35
2023-05-04T02:22:12.025Z,5.31
2023-05-04T02:23:51.787Z,5.29
2023-05-04T02:25:31.556Z,5.26
2023-05-04T02:27:11.325Z,5.23
2023-05-04T02:28:51.080Z,5.17
2023-05-04T02:30:30.848Z,5.19
2023-05-04T02:32:10.615Z,5.17
2023-05-04T02:33:50.379Z,5.16
2023-05-04T02:35:30.145Z,5.14
2023-05-04T02:37:09.898Z,5.11
2023-05-04T02:38:49.683Z,5.09
2023-05-04T02:40:29.433Z,5.06
2023-05-04T02:42:09.190Z,5.05
2023-05-04T02:44:16.019Z,5.02
2023-05-04T02:45:28.749Z,5.02
2023-05-04T02:48:48.246Z,4.98
2023-05-04T02:50:28.026Z,4.92
2023-05-04T02:52:07.787Z,4.91
2023-05-04T02:53:47.541Z,4.91
2023-05-04T02:55:27.377Z,4.88
2023-05-04T02:58:46.863Z,4.83
2023-05-04T03:00:26.610Z,4.77
2023-05-04T03:02:06.370Z,4.77
2023-05-04T03:03:46.117Z,4.77
2023-05-04T03:05:25.893Z,4.73
2023-05-04T03:08:45.424Z,4.69
2023-05-04T03:10:25.181Z,4.67
2023-05-04T03:12:04.965Z,4.66
2023-05-04T03:13:44.707Z,4.63
2023-05-04T03:15:24.479Z,4.61
2023-05-04T03:17:04.239Z,4.59
2023-05-04T03:20:23.765Z,4.53
2023-05-04T03:22:03.538Z,4.51
2023-05-04T03:23:43.296Z,4.48
2023-05-04T03:25:23.075Z,4.48
2023-05-04T03:27:02.836Z,4.44
2023-05-04T03:28:42.598Z,4.44
2023-05-04T03:30:22.355Z,4.42
2023-05-04T03:32:02.114Z,4.41
2023-05-04T03:33:41.873Z,4.39
2023-05-04T03:35:21.638Z,4.4
2023-05-04T03:37:01.413Z,4.38
2023-05-04T03:38:41.209Z,4.35
2023-05-04T03:40:20.943Z,4.35
2023-05-04T03:42:00.694Z,4.32
2023-05-04T03:43:40.502Z,4.32
2023-05-04T03:45:20.213Z,4.28
2023-05-04T03:48:39.771Z,4.19
2023-05-04T03:50:19.520Z,4.23
2023-05-04T03:51:59.273Z,4.25
2023-05-04T03:53:39.048Z,4.21
2023-05-04T03:55:18.855Z,4.21
2023-05-04T03:56:58.572Z,4.17
2023-05-04T03:58:38.330Z,4.17
2023-05-04T04:00:18.097Z,4.14
2023-05-04T04:01:57.867Z,4.14
2023-05-04T04:03:37.622Z,4.13
2023-05-04T04:05:17.382Z,4.11
2023-05-04T04:06:57.156Z,4.09
2023-05-04T04:08:36.917Z,4.07
2023-05-04T04:10:16.696Z,4.09
2023-05-04T04:11:56.443Z,4.05
2023-05-04T04:15:15.968Z,4.02
2023-05-04T04:16:55.740Z,4.03
2023-05-04T04:18:35.496Z,4.03
2023-05-04T04:20:15.268Z,4
2023-05-04T04:21:55.033Z,4.02
2023-05-04T04:23:34.791Z,4.02
2023-05-04T04:25:14.569Z,4.03
2023-05-04T04:26:54.328Z,4.03
2023-05-04T04:28:34.090Z,4.09
2023-05-04T04:30:13.840Z,4.04
2023-05-04T04:31:53.635Z,4.03
2023-05-04T04:33:33.356Z,4.03
2023-05-04T04:35:13.167Z,4.03
2023-05-04T04:36:52.908Z,3.99
2023-05-04T04:38:32.681Z,4.03
2023-05-04T04:40:12.433Z,4.04
2023-05-04T04:43:31.945Z,4.05
2023-05-04T04:45:11.726Z,4.04
2023-05-04T04:46:51.482Z,4.05
2023-05-04T04:50:11.015Z,4.06
2023-05-04T04:51:50.770Z,4.04
2023-05-04T04:53:30.536Z,4.07
2023-05-04T04:55:10.314Z,4.07
2023-05-04T04:56:50.063Z,4.08
2023-05-04T04:58:29.839Z,4.09
2023-05-04T05:00:09.584Z,4.08
2023-05-04T05:01:49.424Z,4.09
2023-05-04T05:03:29.143Z,4.11
2023-05-04T05:05:09.036Z,4.15
2023-05-04T05:06:48.671Z,4.14
2023-05-04T05:08:28.408Z,4.14
2023-05-04T05:10:08.181Z,4.17
2023-05-04T05:11:47.968Z,4.23
2023-05-04T05:13:27.705Z,4.21
2023-05-04T05:15:07.470Z,4.23
2023-05-04T05:16:47.257Z,4.23
2023-05-04T05:18:26.989Z,4.26
2023-05-04T05:20:06.760Z,4.28
2023-05-04T05:21:46.553Z,4.28
2023-05-04T05:25:06.071Z,4.33
2023-05-04T05:26:45.819Z,4.34
2023-05-04T05:28:25.571Z,4.36
2023-05-04T05:30:05.353Z,4.38
2023-05-04T05:31:45.261Z,4.39
2023-05-04T05:33:24.870Z,4.4
2023-05-04T05:35:04.650Z,4.4
2023-05-04T05:36:44.394Z,4.44
2023-05-04T05:38:24.157Z,4.44
2023-05-04T05:40:03.918Z,4.48
2023-05-04T05:41:43.692Z,4.48
2023-05-04T05:43:23.457Z,4.48
2023-05-04T05:45:03.214Z,4.52
2023-05-04T05:46:42.981Z,4.59
2023-05-04T05:48:22.740Z,4.58
2023-05-04T05:50:02.506Z,4.6
2023-05-04T05:51:42.279Z,4.6
2023-05-04T05:53:22.040Z,4.65
2023-05-04T05:55:01.804Z,4.67
2023-05-04T05:56:41.570Z,4.71
2023-05-04T05:58:21.331Z,4.71
2023-05-04T06:00:01.095Z,4.65
2023-05-04T06:01:40.858Z,4.67
2023-05-04T06:03:20.701Z,4.79
2023-05-04T06:05:00.565Z,4.83
2023-05-04T06:06:40.158Z,4.84
2023-05-04T06:08:19.978Z,4.89
2023-05-04T06:09:59.674Z,4.81
2023-05-04T06:11:39.475Z,4.94
2023-05-04T06:13:19.202Z,4.94
2023-05-04T06:14:59.097Z,5.02
2023-05-04T06:16:38.754Z,5.03
2023-05-04T06:18:18.571Z,5.08
2023-05-04T06:19:58.259Z,5.1
2023-05-04T06:21:38.039Z,5.15
2023-05-04T06:23:17.798Z,5.07
2023-05-04T06:24:57.564Z,5.22
2023-05-04T06:26:37.339Z,5.23
2023-05-04T06:28:17.252Z,5.27
2023-05-04T06:29:56.950Z,5.31
2023-05-04T06:31:36.605Z,5.35
2023-05-04T06:33:16.494Z,5.38
2023-05-04T06:34:56.327Z,5.42
2023-05-04T06:36:36.023Z,5.44
2023-05-04T06:38:15.772Z,5.51
2023-05-04T06:39:55.409Z,5.52
2023-05-04T06:41:35.172Z,5.59
2023-05-04T06:43:14.959Z,5.62
2023-05-04T06:44:54.721Z,5.68
2023-05-04T06:46:34.491Z,5.75
2023-05-04T06:48:14.233Z,5.78
2023-05-04T06:49:53.991Z,5.87
2023-05-04T06:51:33.791Z,5.92
2023-05-04T06:54:53.301Z,6.04
2023-05-04T06:56:33.075Z,6.08
2023-05-04T06:58:12.813Z,6.17
2023-05-04T06:59:52.588Z,6.24
2023-05-04T07:01:32.351Z,6.36
2023-05-04T07:03:12.123Z,6.45
2023-05-04T07:04:51.884Z,6.52
2023-05-04T07:06:31.633Z,6.65
2023-05-04T07:08:11.410Z,6.73
2023-05-04T07:09:51.152Z,6.83
2023-05-04T07:11:30.941Z,6.94
2023-05-04T07:13:10.701Z,7.07
2023-05-04T07:14:50.459Z,7.15
2023-05-04T07:16:30.215Z,7.27
2023-05-04T07:18:09.994Z,7.38
2023-05-04T07:19:49.747Z,7.46
2023-05-04T07:21:29.513Z,7.56
2023-05-04T07:23:09.280Z,7.69
2023-05-04T07:24:49.047Z,7.78
2023-05-04T07:26:28.808Z,7.9
2023-05-04T07:28:08.568Z,8
2023-05-04T07:29:48.335Z,8.1
2023-05-04T07:31:28.094Z,8.24
2023-05-04T07:33:07.859Z,8.33
2023-05-04T07:34:47.628Z,8.43
2023-05-04T07:36:27.384Z,8.54
2023-05-04T07:38:07.146Z,8.66
2023-05-04T07:39:46.907Z,8.77
2023-05-04T07:41:26.686Z,8.88
2023-05-04T07:43:06.449Z,8.97
2023-05-04T07:44:46.252Z,9.09
2023-05-04T07:46:25.963Z,9.2
2023-05-04T07:48:05.743Z,9.3
2023-05-04T07:49:45.493Z,9.42
2023-05-04T07:51:25.268Z,9.51
2023-05-04T07:53:05.050Z,9.6
2023-05-04T07:54:44.781Z,9.71
2023-05-04T07:56:24.562Z,9.83
2023-05-04T07:58:04.313Z,9.93
2023-05-04T07:59:44.079Z,10.05
2023-05-04T08:01:23.852Z,10.16
2023-05-04T08:03:03.613Z,10.26
2023-05-04T08:04:43.366Z,10.35
2023-05-04T08:06:23.149Z,10.47
2023-05-04T08:09:42.676Z,10.67
2023-05-04T08:11:22.429Z,10.79
2023-05-04T08:14:41.954Z,10.98
2023-05-04T08:16:21.715Z,11.08
2023-05-04T08:18:01.487Z,11.19
2023-05-04T08:19:41.252Z,11.24
2023-05-04T08:21:21.027Z,11.35
2023-05-04T08:23:00.783Z,11.43
2023-05-04T08:24:40.581Z,11.53
2023-05-04T08:26:20.306Z,11.61
2023-05-04T08:28:00.088Z,11.71
2023-05-04T08:29:39.852Z,11.8
2023-05-04T08:31:19.592Z,11.93
2023-05-04T08:32:59.376Z,12
2023-05-04T08:34:39.122Z,12.11
2023-05-04T08:37:58.827Z,12.27
2023-05-04T08:39:38.422Z,12.4
2023-05-04T08:41:18.187Z,12.51
2023-05-04T08:42:58.315Z,12.57
2023-05-04T08:44:37.721Z,12.67
2023-05-04T08:46:17.491Z,12.75
2023-05-04T08:47:57.246Z,12.86
2023-05-04T08:49:37.037Z,12.94
2023-05-04T08:51:16.784Z,13.01
2023-05-04T08:52:56.536Z,13.09
2023-05-04T08:54:36.297Z,13.18
2023-05-04T08:56:16.063Z,13.25
2023-05-04T08:57:55.897Z,13.33
2023-05-04T08:59:35.596Z,13.4
2023-05-04T09:01:15.347Z,13.48
2023-05-04T09:02:55.118Z,13.55
2023-05-04T09:04:34.886Z,13.63
2023-05-04T09:06:14.653Z,13.7
2023-05-04T09:07:54.406Z,13.75
2023-05-04T09:09:34.182Z,13.8
2023-05-04T09:11:13.946Z,13.87
2023-05-04T09:12:53.705Z,13.93
2023-05-04T09:17:52.979Z,14.13
2023-05-04T09:19:32.787Z,14.2
2023-05-04T09:21:12.527Z,14.26
2023-05-04T09:22:52.295Z,14.34
2023-05-04T09:24:32.043Z,14.41
2023-05-04T09:26:11.817Z,14.48
2023-05-04T09:27:51.573Z,14.55
2023-05-04T09:29:31.348Z,14.61
2023-05-04T09:31:11.106Z,14.67
2023-05-04T09:32:50.858Z,14.74
2023-05-04T09:34:30.633Z,14.78
2023-05-04T09:36:10.409Z,14.84
2023-05-04T09:37:50.179Z,14.88
2023-05-04T09:39:29.919Z,14.97
2023-05-04T09:41:09.690Z,15.04
2023-05-04T09:42:49.466Z,15.14
2023-05-04T09:44:29.216Z,15.19
2023-05-04T09:47:48.741Z,15.31
2023-05-04T09:49:28.510Z,15.36
2023-05-04T09:51:08.279Z,15.4
2023-05-04T09:52:48.043Z,15.47
2023-05-04T09:54:27.805Z,15.53
2023-05-04T09:56:07.593Z,15.61
2023-05-04T09:57:47.323Z,15.69
2023-05-04T09:59:27.098Z,15.78
2023-05-04T10:01:06.845Z,15.83
2023-05-04T10:02:46.626Z,15.9
2023-05-04T10:04:26.385Z,15.98
2023-05-04T10:06:06.162Z,16.04
2023-05-04T10:07:45.916Z,16.12
2023-05-04T10:09:25.677Z,16.16
2023-05-04T10:11:05.438Z,16.11
2023-05-04T10:12:45.204Z,16.25
2023-05-04T10:14:24.968Z,16.29
2023-05-04T10:16:04.741Z,16.33
2023-05-04T10:17:44.496Z,16.4
2023-05-04T10:19:24.273Z,16.46
2023-05-04T10:21:04.017Z,16.54
2023-05-04T10:22:43.793Z,16.62
2023-05-04T10:24:23.551Z,16.69
2023-05-04T10:26:03.326Z,16.75
2023-05-04T10:27:43.085Z,16.82
2023-05-04T10:29:22.907Z,16.9
2023-05-04T10:31:02.600Z,16.95
2023-05-04T10:32:42.427Z,17.01
2023-05-04T10:34:22.257Z,17.09
2023-05-04T10:36:01.913Z,17.15
2023-05-04T10:37:41.665Z,17.2
2023-05-04T10:39:21.444Z,17.29
2023-05-04T10:41:01.194Z,17.34
2023-05-04T10:42:40.961Z,17.39
2023-05-04T10:44:20.709Z,17.45
2023-05-04T10:46:00.483Z,17.46
2023-05-04T10:47:40.239Z,17.52
2023-05-04T10:49:20.126Z,17.54
2023-05-04T10:50:59.805Z,17.6
2023-05-04T10:52:39.585Z,17.66
2023-05-04T10:54:19.312Z,17.74
2023-05-04T10:55:59.067Z,17.79
2023-05-04T10:57:38.824Z,17.85
2023-05-04T10:59:18.596Z,17.89
2023-05-04T11:00:58.347Z,17.95
2023-05-04T11:02:38.124Z,17.98
2023-05-04T11:04:17.884Z,18.02
2023-05-04T11:05:57.657Z,18.07
2023-05-04T11:07:37.424Z,18.11
2023-05-04T11:09:17.183Z,18.15
2023-05-04T11:10:56.954Z,18.2
2023-05-04T11:12:36.708Z,18.24
2023-05-04T11:14:16.462Z,18.28
2023-05-04T11:15:56.241Z,18.31
2023-05-04T11:17:35.999Z,18.34
2023-05-04T11:19:15.782Z,18.43
2023-05-04T11:20:55.526Z,18.45
2023-05-04T11:22:35.401Z,18.52
2023-05-04T11:24:15.099Z,18.49
2023-05-04T11:25:54.824Z,18.49
2023-05-04T11:27:34.688Z,18.53
2023-05-04T11:29:14.447Z,18.52
2023-05-04T11:30:54.246Z,18.54
2023-05-04T11:32:33.875Z,18.58
2023-05-04T11:34:13.629Z,18.62
2023-05-04T11:35:53.407Z,18.68
2023-05-04T11:37:33.171Z,18.74
2023-05-04T11:39:12.926Z,18.81
2023-05-04T11:40:52.691Z,18.87
2023-05-04T11:42:32.448Z,18.95
2023-05-04T11:44:12.222Z,19.03
2023-05-04T11:45:52.042Z,19.12
2023-05-04T11:47:31.817Z,19.16
2023-05-04T11:49:11.596Z,19.23
2023-05-04T11:50:51.398Z,19.27
2023-05-04T11:52:31.046Z,19.32
2023-05-04T11:54:10.913Z,19.37
2023-05-04T11:55:50.571Z,19.45
2023-05-04T11:57:30.342Z,19.52
2023-05-04T11:59:10.117Z,19.57
2023-05-04T12:00:49.879Z,19.66
2023-05-04T12:02:29.652Z,19.7
2023-05-04T12:04:09.397Z,19.78
2023-05-04T12:05:49.156Z,19.82
2023-05-04T12:07:28.929Z,19.89
2023-05-04T12:09:08.681Z,19.93
2023-05-04T12:10:48.449Z,19.94
2023-05-04T12:12:28.231Z,19.96
2023-05-04T12:14:07.971Z,19.98
2023-05-04T12:15:47.753Z,20.01
2023-05-04T12:17:27.495Z,20.01
2023-05-04T12:19:07.301Z,20.1
2023-05-04T12:20:47.043Z,20.12
2023-05-04T12:22:26.801Z,20.21
2023-05-04T12:24:06.554Z,20.2
2023-05-04T12:25:46.334Z,20.25
2023-05-04T12:27:26.213Z,20.28
2023-05-04T12:29:05.873Z,20.32
2023-05-04T12:30:45.623Z,20.35
2023-05-04T12:32:25.382Z,20.37
2023-05-04T12:34:05.144Z,20.35
2023-05-04T12:35:44.912Z,20.34
2023-05-04T12:37:24.680Z,20.37
2023-05-04T12:39:04.443Z,20.39
2023-05-04T12:40:44.197Z,20.4
2023-05-04T12:42:23.960Z,20.43
2023-05-04T12:44:03.751Z,20.45
2023-05-04T12:45:43.495Z,20.5
2023-05-04T12:47:23.273Z,20.51
2023-05-04T12:49:03.011Z,20.52
2023-05-04T12:50:42.799Z,20.55
2023-05-04T12:52:22.593Z,20.58
2023-05-04T12:54:02.475Z,20.61
2023-05-04T12:55:42.103Z,20.64
2023-05-04T12:57:21.854Z,20.68
2023-05-04T12:59:01.610Z,20.73
2023-05-04T13:00:41.371Z,20.83
2023-05-04T13:02:21.130Z,20.9
2023-05-04T13:04:00.904Z,20.97
2023-05-04T13:05:40.666Z,21.05
2023-05-04T13:07:20.446Z,21.11
2023-05-04T13:09:00.206Z,21.16
2023-05-04T13:10:39.969Z,21.22
2023-05-04T13:12:19.731Z,21.3
2023-05-04T13:15:39.251Z,21.38
2023-05-04T13:17:19.021Z,21.42
2023-05-04T13:18:58.773Z,21.39
2023-05-04T13:20:38.545Z,21.46
2023-05-04T13:22:18.316Z,21.51
2023-05-04T13:23:58.081Z,21.56
2023-05-04T13:25:37.870Z,21.5
2023-05-04T13:27:17.617Z,21.56
2023-05-04T13:28:57.372Z,21.62
2023-05-04T13:30:37.119Z,21.68
2023-05-04T13:32:16.911Z,21.69
2023-05-04T13:33:56.658Z,21.75
2023-05-04T13:35:36.437Z,21.8
2023-05-04T13:37:16.227Z,21.85
2023-05-04T13:38:55.958Z,21.87
2023-05-04T13:40:35.731Z,21.94
2023-05-04T13:42:15.475Z,22.03
2023-05-04T13:43:55.248Z,22.11
2023-05-04T13:45:35.016Z,22.19
2023-05-04T13:47:14.789Z,22.24
2023-05-04T13:48:54.526Z,22.3
2023-05-04T13:50:34.306Z,22.29
2023-05-04T13:52:14.081Z,22.26
2023-05-04T13:53:53.841Z,22.2
2023-05-04T13:55:33.592Z,22.22
2023-05-04T13:57:13.365Z,22.2
2023-05-04T13:58:53.138Z,22.09
2023-05-04T14:00:32.882Z,22.21
2023-05-04T14:02:12.660Z,22.23
2023-05-04T14:03:52.497Z,22.29
2023-05-04T14:05:32.179Z,22.35
2023-05-04T14:07:11.948Z,22.45
2023-05-04T14:08:51.702Z,22.48
2023-05-04T14:10:31.464Z,22.53
2023-05-04T14:12:11.237Z,22.57
2023-05-04T14:13:51.007Z,22.63
2023-05-04T14:15:30.752Z,22.72
2023-05-04T14:17:10.528Z,22.79
2023-05-04T14:18:50.281Z,22.85
2023-05-04T14:20:30.060Z,22.89
2023-05-04T14:22:09.823Z,22.88
2023-05-04T14:23:49.584Z,22.88
2023-05-04T14:25:29.334Z,22.86
2023-05-04T14:27:09.114Z,22.86
2023-05-04T14:28:48.878Z,22.78
2023-05-04T14:30:28.656Z,22.7
2023-05-04T14:32:08.394Z,22.6
2023-05-04T14:33:48.167Z,22.65
2023-05-04T14:35:27.931Z,22.61
2023-05-04T14:37:07.710Z,22.52
2023-05-04T14:38:47.451Z,22.57
2023-05-04T14:40:27.214Z,22.6
2023-05-04T14:42:06.993Z,22.6
2023-05-04T14:43:46.746Z,22.62
2023-05-04T14:45:26.535Z,22.65
2023-05-04T14:47:06.307Z,22.68
2023-05-04T14:48:46.060Z,22.59
2023-05-04T14:50:25.843Z,22.54
2023-05-04T14:52:05.578Z,22.47
2023-05-04T14:53:45.343Z,22.42
2023-05-04T14:55:25.155Z,22.37
2023-05-04T14:57:04.872Z,22.32
2023-05-04T14:58:44.707Z,22.25
2023-05-04T15:00:24.401Z,22.2
2023-05-04T15:02:04.166Z,22.17
2023-05-04T15:03:43.941Z,22.12
2023-05-04T15:05:23.691Z,22.11
2023-05-04T15:07:03.467Z,22.03
2023-05-04T15:08:43.237Z,22
2023-05-04T15:10:23.051Z,21.96
2023-05-04T15:12:02.762Z,21.94
2023-05-04T15:13:42.508Z,21.84
2023-05-04T15:15:22.282Z,21.84
2023-05-04T15:17:02.051Z,21.83
2023-05-04T15:18:41.788Z,21.82
2023-05-04T15:20:21.581Z,21.74
2023-05-04T15:22:01.336Z,21.78
2023-05-04T15:23:41.101Z,21.77
2023-05-04T15:25:20.861Z,21.69
2023-05-04T15:27:00.634Z,21.65
2023-05-04T15:28:40.393Z,21.62
2023-05-04T15:30:20.158Z,21.62
2023-05-04T15:31:59.977Z,21.6
2023-05-04T15:33:39.776Z,21.57
2023-05-04T15:35:19.445Z,21.54
2023-05-04T15:36:59.205Z,21.5
2023-05-04T15:38:39.025Z,21.47
2023-05-04T15:40:18.744Z,21.43
2023-05-04T15:41:58.539Z,21.38
2023-05-04T15:43:38.269Z,21.35
2023-05-04T15:45:18.020Z,21.3
2023-05-04T15:46:57.806Z,21.25
2023-05-04T15:48:37.722Z,21.23
2023-05-04T15:50:17.315Z,21.2
2023-05-04T15:51:57.085Z,21.15
2023-05-04T15:53:36.923Z,21.12
2023-05-04T15:55:16.655Z,21.1
2023-05-04T15:56:56.385Z,21.09
2023-05-04T15:58:36.264Z,21.05
2023-05-04T16:00:15.916Z,21.01
2023-05-04T16:01:55.774Z,21
2023-05-04T16:03:35.628Z,20.94
2023-05-04T16:05:15.300Z,20.89
2023-05-04T16:06:55.154Z,20.89
2023-05-04T16:08:34.738Z,20.84
2023-05-04T16:10:14.518Z,20.78
2023-05-04T16:11:54.252Z,20.76
2023-05-04T16:13:34.031Z,20.73
2023-05-04T16:15:13.785Z,20.69
2023-05-04T16:16:53.542Z,20.66
2023-05-04T16:18:33.343Z,20.6
2023-05-04T16:20:13.175Z,20.58
2023-05-04T16:21:52.858Z,20.56
2023-05-04T16:23:32.602Z,20.57
2023-05-04T16:25:12.372Z,20.56
2023-05-04T16:26:52.126Z,20.53
2023-05-04T16:28:31.991Z,20.52
2023-05-04T16:30:11.681Z,20.49
2023-05-04T16:31:51.424Z,20.46
2023-05-04T16:33:31.202Z,20.45
2023-05-04T16:35:10.968Z,20.43
2023-05-04T16:36:50.802Z,20.4
2023-05-04T16:38:30.545Z,20.36
2023-05-04T16:40:10.245Z,20.36
2023-05-04T16:43:29.785Z,20.27
2023-05-04T16:45:09.546Z,20.24
2023-05-04T16:46:49.319Z,20.2
2023-05-04T16:48:29.063Z,20.15
2023-05-04T16:50:08.861Z,20.12
2023-05-04T16:51:48.622Z,20.06
2023-05-04T16:53:28.401Z,20.04
2023-05-04T16:55:08.187Z,19.95
2023-05-04T16:56:47.916Z,19.89
2023-05-04T16:58:27.754Z,19.86
2023-05-04T17:00:07.421Z,19.79
2023-05-04T17:01:47.177Z,19.73
2023-05-04T17:03:26.960Z,19.69
2023-05-04T17:05:06.706Z,19.65
2023-05-04T17:06:46.556Z,19.6
2023-05-04T17:08:26.390Z,19.49
2023-05-04T17:10:06.008Z,19.49
2023-05-04T17:11:45.804Z,19.46
2023-05-04T17:13:25.598Z,19.44
2023-05-04T17:15:05.324Z,19.39
2023-05-04T17:16:45.075Z,19.37
2023-05-04T17:18:24.848Z,19.34
2023-05-04T17:20:04.599Z,19.32
2023-05-04T17:21:44.350Z,19.29
2023-05-04T17:23:24.129Z,19.26
2023-05-04T17:25:03.937Z,19.23
2023-05-04T17:26:43.657Z,19.2
2023-05-04T17:28:23.499Z,19.17
2023-05-04T17:30:03.176Z,19.14
2023-05-04T17:33:22.739Z,19.08
2023-05-04T17:36:42.251Z,19.01
2023-05-04T17:38:21.997Z,18.99
2023-05-04T17:40:01.746Z,18.95
2023-05-04T17:43:21.370Z,18.87
2023-05-04T17:45:01.059Z,18.83
2023-05-04T17:46:40.816Z,18.79
2023-05-04T17:48:20.598Z,18.78
2023-05-04T17:50:00.369Z,18.71
2023-05-04T17:51:40.198Z,18.69
2023-05-04T17:53:19.872Z,18.66
2023-05-04T17:54:59.640Z,18.62
2023-05-04T17:58:19.167Z,18.54
2023-05-04T17:59:58.957Z,18.52
2023-05-04T18:03:18.460Z,18.44
2023-05-04T18:04:58.222Z,18.37
2023-05-04T18:06:38.058Z,18.33
2023-05-04T18:08:17.763Z,18.31
2023-05-04T18:09:57.510Z,18.26
2023-05-04T18:11:37.276Z,18.23
2023-05-04T18:13:17.037Z,18.19
2023-05-04T18:14:56.838Z,18.17
2023-05-04T18:16:36.582Z,18.12
2023-05-04T18:18:16.340Z,18.04
2023-05-04T18:19:56.119Z,18.08
2023-05-04T18:21:35.867Z,18.04
2023-05-04T18:23:15.613Z,18.02
2023-05-04T18:24:55.391Z,17.98
2023-05-04T18:26:35.200Z,17.93
2023-05-04T18:28:14.914Z,17.9
2023-05-04T18:29:54.665Z,17.86
2023-05-04T18:33:14.192Z,17.79
2023-05-04T18:34:53.983Z,17.73
2023-05-04T18:36:33.723Z,17.69
2023-05-04T18:38:13.508Z,17.64
2023-05-04T18:39:53.262Z,17.62
2023-05-04T18:43:12.798Z,17.52
2023-05-04T18:44:52.545Z,17.49
2023-05-04T18:46:32.325Z,17.44
2023-05-04T18:48:12.074Z,17.4
2023-05-04T18:49:51.835Z,17.36
2023-05-04T18:51:31.686Z,17.33
2023-05-04T18:53:11.379Z,17.28
2023-05-04T18:54:51.140Z,17.24
2023-05-04T18:56:30.888Z,17.2
2023-05-04T18:58:10.692Z,17.17
2023-05-04T18:59:50.439Z,17.12
2023-05-04T19:01:30.212Z,17.09
2023-05-04T19:03:10.060Z,17.07
2023-05-04T19:04:49.726Z,17.01
2023-05-04T19:06:29.475Z,17.01
2023-05-04T19:08:09.289Z,16.95
2023-05-04T19:09:49.068Z,16.93
2023-05-04T19:11:28.790Z,16.9
2023-05-04T19:13:08.553Z,16.85
2023-05-04T19:14:48.306Z,16.82
2023-05-04T19:16:28.075Z,16.81
2023-05-04T19:18:07.883Z,16.77
2023-05-04T19:19:47.613Z,16.74
2023-05-04T19:21:27.390Z,16.7
2023-05-04T19:23:07.121Z,16.67
2023-05-04T19:24:46.894Z,16.64
2023-05-04T19:26:26.815Z,16.62
2023-05-04T19:28:06.449Z,16.6
2023-05-04T19:29:46.271Z,16.58
2023-05-04T19:31:26.093Z,16.53
2023-05-04T19:33:05.705Z,16.51
2023-05-04T19:34:45.476Z,16.48
2023-05-04T19:36:25.324Z,16.45
2023-05-04T19:38:04.995Z,16.42
2023-05-04T19:39:44.824Z,16.4
2023-05-04T19:41:24.700Z,16.36
2023-05-04T19:43:04.369Z,16.34
2023-05-04T19:44:44.152Z,16.29
2023-05-04T19:46:23.932Z,16.27
2023-05-04T19:48:03.663Z,16.24
2023-05-04T19:49:43.344Z,16.2
2023-05-04T19:51:23.108Z,16.15
2023-05-04T19:53:02.882Z,16.12
2023-05-04T19:54:42.646Z,16.08
2023-05-04T19:56:22.393Z,16.04
2023-05-04T19:58:02.288Z,16.03
2023-05-04T19:59:41.939Z,15.99
2023-05-04T20:01:21.710Z,15.97
2023-05-04T20:03:01.444Z,15.92
2023-05-04T20:04:41.280Z,15.87
2023-05-04T20:06:21.022Z,15.86
2023-05-04T20:08:00.753Z,15.84
2023-05-04T20:09:40.501Z,15.81
2023-05-04T20:11:20.270Z,15.79
2023-05-04T20:13:00.096Z,15.74
2023-05-04T20:14:39.844Z,15.69
2023-05-04T20:16:19.660Z,15.66
2023-05-04T20:17:59.336Z,15.62
2023-05-04T20:19:39.158Z,15.58
2023-05-04T20:21:18.947Z,15.54
2023-05-04T20:22:58.629Z,15.52
2023-05-04T20:24:38.380Z,15.46
2023-05-04T20:26:18.162Z,15.42
2023-05-04T20:27:57.912Z,15.39
2023-05-04T20:29:37.683Z,15.38
2023-05-04T20:31:17.431Z,15.33
2023-05-04T20:32:57.301Z,15.32
2023-05-04T20:34:36.972Z,15.29
2023-05-04T20:37:56.514Z,15.22
2023-05-04T20:39:36.267Z,15.19
2023-05-04T20:41:16.031Z,15.16
2023-05-04T20:42:55.792Z,15.14
2023-05-04T20:44:35.559Z,15.1
2023-05-04T20:46:15.321Z,15.05
2023-05-04T20:47:55.078Z,15.01
2023-05-04T20:49:34.887Z,14.96
2023-05-04T20:51:14.748Z,14.9
2023-05-04T20:52:54.381Z,14.85
2023-05-04T20:56:13.980Z,14.72
2023-05-04T20:57:53.676Z,14.69
2023-05-04T20:59:33.448Z,14.63
2023-05-04T21:02:52.961Z,14.53
2023-05-04T21:04:32.767Z,14.5
2023-05-04T21:06:12.485Z,14.45
2023-05-04T21:07:52.250Z,14.41
2023-05-04T21:09:32.031Z,14.36
2023-05-04T21:11:11.777Z,14.31
2023-05-04T21:12:51.540Z,14.27
2023-05-04T21:14:31.307Z,14.23
2023-05-04T21:16:11.072Z,14.19
2023-05-04T21:17:50.821Z,14.13
2023-05-04T21:19:30.605Z,14.09
2023-05-04T21:21:10.410Z,14.04
2023-05-04T21:22:50.132Z,13.99
2023-05-04T21:24:29.912Z,13.95
2023-05-04T21:27:49.415Z,13.85
2023-05-04T21:29:29.184Z,13.8
2023-05-04T21:31:08.933Z,13.76
2023-05-04T21:32:48.701Z,13.72
2023-05-04T21:34:28.470Z,13.67
2023-05-04T21:36:08.228Z,13.64
2023-05-04T21:37:48.006Z,13.58
2023-05-04T21:39:27.791Z,13.57
2023-05-04T21:42:47.294Z,13.49
2023-05-04T21:44:27.065Z,13.46
2023-05-04T21:46:06.834Z,13.45
2023-05-04T21:47:46.589Z,13.41
2023-05-04T21:49:26.332Z,13.37
2023-05-04T21:51:06.107Z,13.33
2023-05-04T21:52:45.879Z,13.31
2023-05-04T21:54:25.631Z,13.27
2023-05-04T21:56:05.417Z,13.22
2023-05-04T21:57:45.157Z,13.17
2023-05-04T21:59:24.917Z,13.16
2023-05-04T22:01:04.704Z,13.11
2023-05-04T22:02:44.471Z,13.09
2023-05-04T22:04:24.230Z,13.03
2023-05-04T22:06:03.990Z,13.01
2023-05-04T22:07:43.807Z,12.96
2023-05-04T22:09:23.517Z,12.93
2023-05-04T22:11:03.283Z,12.88
2023-05-04T22:12:43.049Z,12.84
2023-05-04T22:14:22.818Z,12.79
2023-05-04T22:17:42.333Z,12.73
2023-05-04T22:19:22.084Z,12.69
2023-05-04T22:22:41.635Z,12.6
2023-05-04T22:24:21.396Z,12.57
2023-05-04T22:26:01.143Z,12.55
2023-05-04T22:27:40.968Z,12.51
2023-05-04T22:29:20.674Z,12.48
2023-05-04T22:31:00.439Z,12.42
2023-05-04T22:32:40.229Z,12.39
2023-05-04T22:34:19.976Z,12.34
2023-05-04T22:35:59.736Z,12.31
2023-05-04T22:37:39.517Z,12.27
2023-05-04T22:39:19.333Z,12.21
2023-05-04T22:40:59.024Z,12.2
2023-05-04T22:42:38.852Z,12.14
2023-05-04T22:44:18.560Z,12.12
2023-05-04T22:45:58.330Z,12.09
2023-05-04T22:47:38.075Z,12.06
2023-05-04T22:49:17.873Z,12.03